createdAt,value
2022-11-16T00:01:51.179Z,102381.94
2022-11-16T00:04:56.079Z,102384.50
2022-11-16T00:08:02.401Z,102375.25
2022-11-16T00:11:08.809Z,102371.91
2022-11-16T00:14:14.856Z,102376.03
2022-11-16T00:17:20.089Z,102369.22
2022-11-16T00:20:24.858Z,102377.75
2022-11-16T00:23:31.066Z,102373.44
2022-11-16T00:26:35.682Z,102377.63
2022-11-16T00:29:40.806Z,102364.16
2022-11-16T00:32:45.309Z,102368.31
2022-11-16T00:35:50.209Z,102376.00
2022-11-16T00:38:56.578Z,102372.47
2022-11-16T00:42:01.657Z,102364.91
2022-11-16T00:45:07.260Z,102362.41
2022-11-16T00:48:14.552Z,102373.53
2022-11-16T00:51:19.232Z,102361.84
2022-11-16T00:54:25.628Z,102377.00
2022-11-16T00:57:30.613Z,102367.66
2022-11-16T01:00:35.489Z,102370.97
2022-11-16T01:03:40.935Z,102372.84
2022-11-16T01:06:46.643Z,102368.41
2022-11-16T01:09:52.780Z,102365.97
2022-11-16T01:12:56.843Z,102366.94
2022-11-16T01:16:01.502Z,102366.09
2022-11-16T01:19:07.220Z,102365.25
2022-11-16T01:22:14.679Z,102369.56
2022-11-16T01:25:21.734Z,102365.28
2022-11-16T01:28:26.496Z,102361.00
2022-11-16T01:31:32.201Z,102366.97
2022-11-16T01:34:39.128Z,102356.00
2022-11-16T01:37:55.026Z,102367.00
2022-11-16T01:41:01.968Z,102354.34
2022-11-16T01:44:56.333Z,102361.75
2022-11-16T01:48:00.960Z,102363.56
2022-11-16T01:51:10.228Z,102356.91
2022-11-16T01:54:16.825Z,102354.38
2022-11-16T01:57:41.421Z,102351.78
2022-11-16T02:00:49.107Z,102357.72
2022-11-16T02:04:20.127Z,102356.78
2022-11-16T02:08:08.348Z,102362.69
2022-11-16T02:11:35.523Z,102353.25
2022-11-16T02:14:59.896Z,102350.69
2022-11-16T02:18:17.345Z,102349.03
2022-11-16T02:21:38.008Z,102352.31
2022-11-16T02:24:50.170Z,102350.47
2022-11-16T02:28:22.272Z,102346.19
2022-11-16T02:31:32.232Z,102345.38
2022-11-16T02:34:42.288Z,102346.16
2022-11-16T02:37:51.933Z,102343.56
2022-11-16T02:41:01.986Z,102345.41
2022-11-16T02:44:13.464Z,102346.34
2022-11-16T02:47:24.512Z,102348.09
2022-11-16T02:50:31.604Z,102350.50
2022-11-16T02:53:43.488Z,102336.19
2022-11-16T02:56:56.138Z,102342.13
2022-11-16T03:00:06.370Z,102336.94
2022-11-16T03:03:29.687Z,102341.25
2022-11-16T03:06:39.522Z,102332.00
2022-11-16T03:09:47.347Z,102339.41
2022-11-16T03:12:51.868Z,102335.22
2022-11-16T03:15:58.059Z,102340.44
2022-11-16T03:19:07.856Z,102326.94
2022-11-16T03:22:15.881Z,102328.59
2022-11-16T03:25:22.520Z,102325.28
2022-11-16T03:28:37.045Z,102326.06
2022-11-16T03:31:48.962Z,102326.13
2022-11-16T03:35:03.226Z,102321.81
2022-11-16T03:38:12.142Z,102328.66
2022-11-16T03:41:22.133Z,102329.34
2022-11-16T03:44:27.511Z,102326.03
2022-11-16T03:47:32.747Z,102330.09
2022-11-16T03:50:39.039Z,102315.69
2022-11-16T03:53:44.165Z,102312.22
2022-11-16T03:56:50.187Z,102316.66
2022-11-16T03:59:55.065Z,102319.16
2022-11-16T04:02:59.671Z,102318.38
2022-11-16T04:06:24.478Z,102321.00
2022-11-16T04:09:46.714Z,102321.84
2022-11-16T04:13:05.506Z,102319.09
2022-11-16T04:16:30.239Z,102320.06
2022-11-16T04:19:57.929Z,102320.91
2022-11-16T04:23:27.590Z,102312.47
2022-11-16T04:26:53.012Z,102320.13
2022-11-16T04:29:58.758Z,102311.66
2022-11-16T04:33:22.360Z,102304.94
2022-11-16T04:36:44.435Z,102298.19
2022-11-16T04:39:51.715Z,102291.38
2022-11-16T04:42:58.428Z,102303.22
2022-11-16T04:46:23.232Z,102310.72
2022-11-16T04:49:27.919Z,102309.59
2022-11-16T04:52:35.440Z,102310.72
2022-11-16T04:55:43.831Z,102301.34
2022-11-16T04:58:49.135Z,102297.97
2022-11-16T05:02:12.109Z,102303.00
2022-11-16T05:05:28.474Z,102299.66
2022-11-16T05:08:33.932Z,102298.88
2022-11-16T05:11:40.518Z,102297.13
2022-11-16T05:14:46.183Z,102293.75
2022-11-16T05:17:54.888Z,102293.75
2022-11-16T05:21:01.268Z,102297.22
2022-11-16T05:24:30.906Z,102287.03
2022-11-16T05:27:37.742Z,102296.91
2022-11-16T05:30:47.253Z,102291.88
2022-11-16T05:33:56.981Z,102292.84
2022-11-16T05:37:02.654Z,102303.88
2022-11-16T05:40:10.074Z,102301.34
2022-11-16T05:43:23.169Z,102302.94
2022-11-16T05:46:37.173Z,102301.25
2022-11-16T05:49:42.845Z,102302.22
2022-11-16T05:52:47.632Z,102311.50
2022-11-16T05:55:53.892Z,102303.81
2022-11-16T05:59:00.793Z,102296.09
2022-11-16T06:02:05.634Z,102298.53
2022-11-16T06:05:12.738Z,102296.84
2022-11-16T06:08:17.727Z,102301.16
2022-11-16T06:11:22.897Z,102301.06
2022-11-16T06:14:29.134Z,102312.97
2022-11-16T06:17:33.898Z,102314.69
2022-11-16T06:20:41.060Z,102307.75
2022-11-16T06:23:46.273Z,102310.41
2022-11-16T06:26:51.476Z,102312.97
2022-11-16T06:29:57.621Z,102318.97
2022-11-16T06:33:02.556Z,102320.53
2022-11-16T06:36:08.877Z,102324.19
2022-11-16T06:39:15.052Z,102328.31
2022-11-16T06:42:19.799Z,102327.38
2022-11-16T06:45:26.386Z,102329.63
2022-11-16T06:48:34.815Z,102329.72
2022-11-16T06:51:43.611Z,102333.78
2022-11-16T06:54:48.545Z,102337.28
2022-11-16T06:57:53.789Z,102327.16
2022-11-16T07:01:07.408Z,102329.66
2022-11-16T07:04:14.498Z,102315.28
2022-11-16T07:07:24.444Z,102322.94
2022-11-16T07:10:31.424Z,102310.31
2022-11-16T07:13:38.499Z,102311.94
2022-11-16T07:16:45.890Z,102310.19
2022-11-16T07:19:50.870Z,102315.34
2022-11-16T07:23:11.388Z,102312.72
2022-11-16T07:26:25.691Z,102306.06
2022-11-16T07:29:55.528Z,102302.66
2022-11-16T07:33:24.266Z,102309.28
2022-11-16T07:36:52.097Z,102294.13
2022-11-16T07:40:00.820Z,102296.00
2022-11-16T07:43:06.922Z,102294.41
2022-11-16T07:46:48.620Z,102301.81
2022-11-16T07:50:00.248Z,102306.78
2022-11-16T07:53:06.026Z,102307.66
2022-11-16T07:56:14.309Z,102308.31
2022-11-16T07:59:22.259Z,102313.41
2022-11-16T08:02:27.876Z,102317.63
2022-11-16T08:05:34.833Z,102315.16
2022-11-16T08:08:40.124Z,102329.44
2022-11-16T08:11:47.109Z,102322.56
2022-11-16T08:14:52.429Z,102320.84
2022-11-16T08:17:59.271Z,102320.00
2022-11-16T08:21:08.330Z,102313.34
2022-11-16T08:24:13.510Z,102310.69
2022-11-16T08:27:20.731Z,102313.06
2022-11-16T08:30:29.599Z,102318.19
2022-11-16T08:33:34.582Z,102317.41
2022-11-16T08:36:41.722Z,102313.22
2022-11-16T08:39:47.051Z,102309.16
2022-11-16T08:42:57.027Z,102315.06
2022-11-16T08:46:02.329Z,102312.53
2022-11-16T08:49:07.646Z,102314.22
2022-11-16T08:52:16.959Z,102309.91
2022-11-16T08:55:22.102Z,102315.66
2022-11-16T08:58:26.920Z,102319.31
2022-11-16T09:01:33.164Z,102318.63
2022-11-16T09:04:38.180Z,102326.91
2022-11-16T09:07:45.786Z,102333.72
2022-11-16T09:10:50.634Z,102330.97
2022-11-16T09:13:57.122Z,102331.88
2022-11-16T09:17:02.008Z,102340.25
2022-11-16T09:20:08.480Z,102330.28
2022-11-16T09:23:23.836Z,102330.03
2022-11-16T09:26:29.891Z,102345.28
2022-11-16T09:29:34.936Z,102348.50
2022-11-16T09:32:39.512Z,102348.63
2022-11-16T09:35:44.390Z,102347.69
2022-11-16T09:42:34.707Z,102343.94
2022-11-16T09:45:46.469Z,102343.78
2022-11-16T09:48:52.122Z,102339.47
2022-11-16T09:52:00.883Z,102346.41
2022-11-16T09:55:24.934Z,102340.41
2022-11-16T09:58:34.143Z,102346.00
2022-11-16T10:01:44.277Z,102348.44
2022-11-16T10:04:58.185Z,102346.78
2022-11-16T10:08:11.312Z,102334.13
2022-11-16T10:11:39.209Z,102341.03
2022-11-16T10:15:15.632Z,102348.56
2022-11-16T10:18:39.990Z,102344.41
2022-11-16T10:21:53.168Z,102346.25
2022-11-16T10:24:59.519Z,102343.84
2022-11-16T10:28:23.710Z,102341.16
2022-11-16T10:31:45.929Z,102338.72
2022-11-16T10:34:54.927Z,102341.28
2022-11-16T10:38:00.439Z,102340.25
2022-11-16T10:41:16.064Z,102339.41
2022-11-16T10:44:31.658Z,102345.38
2022-11-16T10:47:42.640Z,102340.44
2022-11-16T10:50:49.389Z,102328.53
2022-11-16T10:53:55.734Z,102335.59
2022-11-16T10:57:06.161Z,102335.41
2022-11-16T11:00:22.025Z,102336.22
2022-11-16T11:03:33.043Z,102332.84
2022-11-16T11:06:40.321Z,102333.63
2022-11-16T11:09:45.145Z,102350.28
2022-11-16T11:13:24.449Z,102341.22
2022-11-16T11:16:30.818Z,102333.63
2022-11-16T11:19:35.569Z,102330.28
2022-11-16T11:22:45.329Z,102338.63
2022-11-16T11:25:53.969Z,102333.63
2022-11-16T11:28:58.969Z,102337.06
2022-11-16T11:32:07.903Z,102332.06
2022-11-16T11:35:24.891Z,102326.97
2022-11-16T11:38:30.204Z,102320.72
2022-11-16T11:41:38.144Z,102326.19
2022-11-16T11:44:50.297Z,102314.94
2022-11-16T11:48:01.604Z,102329.31
2022-11-16T11:51:15.020Z,102332.53
2022-11-16T11:54:24.069Z,102330.81
2022-11-16T11:57:28.969Z,102322.47
2022-11-16T12:00:42.170Z,102327.44
2022-11-16T12:04:40.421Z,102320.97
2022-11-16T12:08:05.672Z,102318.16
2022-11-16T12:11:19.512Z,102321.00
2022-11-16T12:14:52.963Z,102315.00
2022-11-16T12:18:11.787Z,102297.28
2022-11-16T12:21:23.518Z,102295.63
2022-11-16T12:24:44.438Z,102303.16
2022-11-16T12:27:58.700Z,102299.72
2022-11-16T12:31:35.602Z,102304.75
2022-11-16T12:34:55.472Z,102298.88
2022-11-16T12:38:11.950Z,102293.94
2022-11-16T12:41:46.104Z,102287.16
2022-11-16T12:45:34.094Z,102289.69
2022-11-16T12:49:02.670Z,102283.94
2022-11-16T12:52:21.990Z,102290.75
2022-11-16T12:55:34.690Z,102294.00
2022-11-16T12:58:55.516Z,102289.72
2022-11-16T13:02:16.708Z,102287.38
2022-11-16T13:05:25.318Z,102283.09
2022-11-16T13:08:44.933Z,102284.81
2022-11-16T13:11:54.313Z,102293.19
2022-11-16T13:15:00.638Z,102296.59
2022-11-16T13:18:08.497Z,102293.88
2022-11-16T13:21:23.349Z,102279.53
2022-11-16T13:24:41.457Z,102283.75
2022-11-16T13:27:50.878Z,102291.34
2022-11-16T13:31:04.710Z,102289.72
2022-11-16T13:34:17.012Z,102284.66
2022-11-16T13:37:47.991Z,102276.31
2022-11-16T13:40:52.585Z,102289.72
2022-11-16T13:43:59.177Z,102290.56
2022-11-16T13:47:05.946Z,102277.00
2022-11-16T13:50:21.750Z,102277.84
2022-11-16T13:56:59.078Z,102281.03
2022-11-16T14:00:21.742Z,102275.16
2022-11-16T14:03:39.525Z,102266.81
2022-11-16T14:07:02.068Z,102268.34
2022-11-16T14:10:08.098Z,102267.56
2022-11-16T14:13:40.493Z,102257.56
2022-11-16T14:16:50.712Z,102257.56
2022-11-16T14:19:56.058Z,102260.03
2022-11-16T14:23:17.906Z,102262.59
2022-11-16T14:26:28.339Z,102266.63
2022-11-16T14:29:48.477Z,102268.41
2022-11-16T14:32:56.419Z,102258.22
2022-11-16T14:36:03.501Z,102256.44
2022-11-16T14:39:31.688Z,102254.91
2022-11-16T14:43:01.831Z,102252.41
2022-11-16T14:46:32.034Z,102254.81
2022-11-16T14:49:39.401Z,102254.81
2022-11-16T14:52:48.433Z,102260.78
2022-11-16T14:55:53.225Z,102249.06
2022-11-16T14:59:00.288Z,102239.66
2022-11-16T15:02:18.303Z,102243.00
2022-11-16T15:05:29.910Z,102243.06
2022-11-16T15:08:39.074Z,102239.56
2022-11-16T15:12:05.263Z,102233.75
2022-11-16T15:15:16.146Z,102251.41
2022-11-16T15:18:23.987Z,102253.13
2022-11-16T15:21:30.945Z,102249.69
2022-11-16T15:24:36.967Z,102251.47
2022-11-16T15:27:44.187Z,102254.94
2022-11-16T15:30:52.275Z,102255.69
2022-11-16T15:33:57.133Z,102244.50
2022-11-16T15:37:03.245Z,102252.94
2022-11-16T15:40:12.284Z,102241.00
2022-11-16T15:43:17.166Z,102246.16
2022-11-16T15:46:22.381Z,102237.88
2022-11-16T15:49:31.184Z,102241.09
2022-11-16T15:52:50.188Z,102247.97
2022-11-16T15:55:54.870Z,102239.31
2022-11-16T15:59:02.230Z,102244.38
2022-11-16T16:02:15.305Z,102236.78
2022-11-16T16:05:23.952Z,102241.13
2022-11-16T16:08:35.754Z,102230.09
2022-11-16T16:11:40.596Z,102240.16
2022-11-16T16:14:46.190Z,102240.16
2022-11-16T16:17:51.304Z,102240.16
2022-11-16T16:20:55.993Z,102236.50
2022-11-16T16:24:02.136Z,102243.44
2022-11-16T16:27:16.789Z,102250.28
2022-11-16T16:30:22.109Z,102248.50
2022-11-16T16:33:31.658Z,102241.63
2022-11-16T16:36:41.283Z,102245.72
2022-11-16T16:39:52.214Z,102253.97
2022-11-16T16:42:59.462Z,102238.09
2022-11-16T16:46:06.834Z,102238.94
2022-11-16T16:49:13.473Z,102241.59
2022-11-16T16:52:21.151Z,102248.25
2022-11-16T16:55:32.861Z,102243.09
2022-11-16T16:58:42.229Z,102238.91
2022-11-16T17:01:48.877Z,102245.75
2022-11-16T17:04:55.766Z,102237.41
2022-11-16T17:08:03.209Z,102240.81
2022-11-16T17:11:12.369Z,102239.94
2022-11-16T17:14:21.505Z,102243.03
2022-11-16T17:17:28.882Z,102237.16
2022-11-16T17:20:36.922Z,102236.41
2022-11-16T17:23:44.208Z,102230.28
2022-11-16T17:26:52.366Z,102233.75
2022-11-16T17:29:59.610Z,102236.41
2022-11-16T17:33:06.618Z,102238.16
2022-11-16T17:36:14.601Z,102233.91
2022-11-16T17:39:21.579Z,102235.50
2022-11-16T17:42:31.978Z,102237.28
2022-11-16T17:45:41.453Z,102240.69
2022-11-16T17:48:49.412Z,102226.38
2022-11-16T17:51:56.287Z,102240.63
2022-11-16T17:55:07.022Z,102224.69
2022-11-16T17:58:18.489Z,102234.88
2022-11-16T18:01:25.744Z,102229.78
2022-11-16T18:04:32.419Z,102227.09
2022-11-16T18:07:40.447Z,102224.72
2022-11-16T18:10:47.210Z,102226.16
2022-11-16T18:13:57.305Z,102229.59
2022-11-16T18:17:03.933Z,102230.50
2022-11-16T18:20:12.762Z,102226.28
2022-11-16T18:23:19.623Z,102225.28
2022-11-16T18:26:26.603Z,102224.47
2022-11-16T18:29:36.300Z,102218.78
2022-11-16T18:32:42.745Z,102228.06
2022-11-16T18:35:48.674Z,102221.06
2022-11-16T18:38:54.205Z,102220.19
2022-11-16T18:41:59.643Z,102219.41
2022-11-16T18:45:07.533Z,102224.41
2022-11-16T18:48:14.602Z,102220.22
2022-11-16T18:51:19.989Z,102221.97
2022-11-16T18:54:24.843Z,102230.41
2022-11-16T18:57:29.593Z,102226.16
2022-11-16T19:00:35.921Z,102233.75
2022-11-16T19:03:41.011Z,102229.59
2022-11-16T19:06:45.839Z,102225.19
2022-11-16T19:09:50.615Z,102231.19
2022-11-16T19:12:55.478Z,102232.03
2022-11-16T19:16:01.602Z,102233.81
2022-11-16T19:19:06.485Z,102234.59
2022-11-16T19:22:13.193Z,102231.25
2022-11-16T19:25:18.169Z,102224.47
2022-11-16T19:28:22.773Z,102232.03
2022-11-16T19:31:30.762Z,102226.94
2022-11-16T19:34:35.450Z,102222.09
2022-11-16T19:37:40.413Z,102229.34
2022-11-16T19:40:45.056Z,102228.66
2022-11-16T19:43:51.319Z,102230.34
2022-11-16T19:46:57.337Z,102226.84
2022-11-16T19:50:02.194Z,102227.56
2022-11-16T19:53:06.864Z,102232.53
2022-11-16T19:56:14.157Z,102219.22
2022-11-16T19:59:18.853Z,102221.84
2022-11-16T20:02:25.121Z,102232.59
2022-11-16T20:05:30.465Z,102229.81
2022-11-16T20:08:35.530Z,102227.25
2022-11-16T20:11:41.823Z,102221.31
2022-11-16T20:14:46.767Z,102227.25
2022-11-16T20:17:53.260Z,102216.34
2022-11-16T20:21:02.444Z,102209.81
2022-11-16T20:24:09.903Z,102209.00
2022-11-16T20:27:14.770Z,102216.50
2022-11-16T20:30:19.610Z,102205.59
2022-11-16T20:33:26.018Z,102214.78
2022-11-16T20:36:32.313Z,102204.75
2022-11-16T20:39:37.164Z,102202.06
2022-11-16T20:42:41.845Z,102205.41
2022-11-16T20:45:48.933Z,102198.66
2022-11-16T20:48:57.089Z,102200.28
2022-11-16T20:52:01.988Z,102205.19
2022-11-16T20:55:07.799Z,102203.56
2022-11-16T20:58:13.292Z,102197.81
2022-11-16T21:01:20.132Z,102198.28
2022-11-16T21:04:27.300Z,102199.25
2022-11-16T21:07:32.133Z,102193.31
2022-11-16T21:10:38.104Z,102196.78
2022-11-16T21:14:00.711Z,102196.72
2022-11-16T21:17:05.577Z,102196.66
2022-11-16T21:20:27.082Z,102196.66
2022-11-16T21:23:34.797Z,102207.63
2022-11-16T21:26:40.151Z,102208.53
2022-11-16T21:29:44.969Z,102209.38
2022-11-16T21:32:49.560Z,102208.41
2022-11-16T21:35:56.257Z,102214.44
2022-11-16T21:39:01.416Z,102219.56
2022-11-16T21:42:06.883Z,102223.75
2022-11-16T21:45:13.407Z,102216.94
2022-11-16T21:48:18.434Z,102212.91
2022-11-16T21:51:26.820Z,102219.41
2022-11-16T21:54:47.343Z,102218.47
2022-11-16T21:57:51.957Z,102216.38
2022-11-16T22:00:57.561Z,102218.16
2022-11-16T22:04:21.295Z,102216.44
2022-11-16T22:07:37.827Z,102225.81
2022-11-16T22:10:43.603Z,102213.59
2022-11-16T22:13:48.958Z,102219.38
2022-11-16T22:16:53.568Z,102211.09
2022-11-16T22:19:58.385Z,102210.31
2022-11-16T22:23:04.441Z,102218.84
2022-11-16T22:26:12.293Z,102216.84
2022-11-16T22:29:17.440Z,102215.16
2022-11-16T22:32:22.269Z,102215.81
2022-11-16T22:35:27.027Z,102215.69
2022-11-16T22:38:33.261Z,102210.72
2022-11-16T22:41:38.006Z,102215.66
2022-11-16T22:44:42.795Z,102216.59
2022-11-16T22:47:50.775Z,102210.88
2022-11-16T22:51:04.700Z,102203.16
2022-11-16T22:54:15.439Z,102208.44
2022-11-16T22:57:20.268Z,102209.47
2022-11-16T23:00:24.956Z,102210.47
2022-11-16T23:03:29.967Z,102209.41
2022-11-16T23:06:34.980Z,102221.13
2022-11-16T23:09:41.194Z,102225.59
2022-11-16T23:13:03.446Z,102225.44
2022-11-16T23:16:08.939Z,102217.97
2022-11-16T23:19:33.767Z,102221.38
2022-11-16T23:22:56.092Z,102212.53
2022-11-16T23:26:19.493Z,102213.38
2022-11-16T23:29:24.644Z,102204.22
2022-11-16T23:32:29.999Z,102198.19
2022-11-16T23:35:34.892Z,102194.19
2022-11-16T23:38:39.589Z,102191.72
2022-11-16T23:42:03.489Z,102197.16
2022-11-16T23:45:08.882Z,102186.28
2022-11-16T23:48:16.747Z,102184.66
2022-11-16T23:51:23.326Z,102182.97
2022-11-16T23:54:28.452Z,102183.03
2022-11-16T23:57:34.376Z,102180.16
